sensor_id;sensor_type;location;lat;lon;timestamp;temperature;humidity
84983;DHT22;75295;45.426;9.696;2024-03-23T00:53:13;14.70;68.30
84983;DHT22;75295;45.426;9.696;2024-03-23T00:55:44;14.70;68.40
84983;DHT22;75295;45.426;9.696;2024-03-23T00:58:10;14.70;68.30
84983;DHT22;75295;45.426;9.696;2024-03-23T01:00:37;14.60;68.20
84983;DHT22;75295;45.426;9.696;2024-03-23T01:03:04;14.70;68.40
84983;DHT22;75295;45.426;9.696;2024-03-23T01:05:30;14.60;68.30
84983;DHT22;75295;45.426;9.696;2024-03-23T01:07:57;14.60;68.30
84983;DHT22;75295;45.426;9.696;2024-03-23T01:10:24;14.60;68.40
84983;DHT22;75295;45.426;9.696;2024-03-23T01:12:50;14.50;68.40
84983;DHT22;75295;45.426;9.696;2024-03-23T01:15:17;14.30;68.40
84983;DHT22;75295;45.426;9.696;2024-03-23T01:17:44;14.20;68.40
84983;DHT22;75295;45.426;9.696;2024-03-23T01:20:10;14.10;68.70
84983;DHT22;75295;45.426;9.696;2024-03-23T01:22:37;14.10;69.00
84983;DHT22;75295;45.426;9.696;2024-03-23T01:25:22;14.10;69.20
84983;DHT22;75295;45.426;9.696;2024-03-23T01:27:49;14.10;69.20
84983;DHT22;75295;45.426;9.696;2024-03-23T01:30:15;14.20;69.20
84983;DHT22;75295;45.426;9.696;2024-03-23T01:32:42;14.20;69.20
84983;DHT22;75295;45.426;9.696;2024-03-23T01:35:09;14.20;69.20
84983;DHT22;75295;45.426;9.696;2024-03-23T01:37:36;14.30;69.20
84983;DHT22;75295;45.426;9.696;2024-03-23T01:40:03;14.30;69.20
84983;DHT22;75295;45.426;9.696;2024-03-23T01:42:30;14.30;69.30
84983;DHT22;75295;45.426;9.696;2024-03-23T01:44:57;14.20;69.20
84983;DHT22;75295;45.426;9.696;2024-03-23T01:47:23;14.30;69.50
84983;DHT22;75295;45.426;9.696;2024-03-23T01:49:50;14.20;69.50
84983;DHT22;75295;45.426;9.696;2024-03-23T01:52:17;14.20;69.60
84983;DHT22;75295;45.426;9.696;2024-03-23T01:54:44;14.20;69.60
84983;DHT22;75295;45.426;9.696;2024-03-23T01:57:11;14.10;69.70
84983;DHT22;75295;45.426;9.696;2024-03-23T01:59:40;14.00;70.00
84983;DHT22;75295;45.426;9.696;2024-03-23T02:02:09;13.90;70.10
84983;DHT22;75295;45.426;9.696;2024-03-23T02:04:35;13.90;70.10
84983;DHT22;75295;45.426;9.696;2024-03-23T02:07:02;13.90;70.10
84983;DHT22;75295;45.426;9.696;2024-03-23T02:09:31;13.90;70.20
84983;DHT22;75295;45.426;9.696;2024-03-23T02:11:58;13.90;70.20
84983;DHT22;75295;45.426;9.696;2024-03-23T02:14:26;13.90;70.30
84983;DHT22;75295;45.426;9.696;2024-03-23T02:16:52;13.80;70.30
84983;DHT22;75295;45.426;9.696;2024-03-23T02:19:19;13.80;70.50
84983;DHT22;75295;45.426;9.696;2024-03-23T02:21:45;13.80;70.60
84983;DHT22;75295;45.426;9.696;2024-03-23T02:24:13;13.80;70.70
84983;DHT22;75295;45.426;9.696;2024-03-23T02:26:40;13.80;70.70
84983;DHT22;75295;45.426;9.696;2024-03-23T02:29:07;13.80;70.70
84983;DHT22;75295;45.426;9.696;2024-03-23T02:31:35;13.90;70.60
84983;DHT22;75295;45.426;9.696;2024-03-23T02:34:02;13.80;70.40
84983;DHT22;75295;45.426;9.696;2024-03-23T02:36:30;13.90;70.30
84983;DHT22;75295;45.426;9.696;2024-03-23T02:38:57;13.90;70.10
84983;DHT22;75295;45.426;9.696;2024-03-23T02:41:24;13.90;69.90
84983;DHT22;75295;45.426;9.696;2024-03-23T02:43:50;14.00;69.70
84983;DHT22;75295;45.426;9.696;2024-03-23T02:46:18;14.00;69.50
84983;DHT22;75295;45.426;9.696;2024-03-23T02:48:44;14.00;69.50
84983;DHT22;75295;45.426;9.696;2024-03-23T02:51:11;14.00;69.40
84983;DHT22;75295;45.426;9.696;2024-03-23T02:53:38;14.00;69.60
84983;DHT22;75295;45.426;9.696;2024-03-23T02:56:04;13.80;69.70
84983;DHT22;75295;45.426;9.696;2024-03-23T02:58:31;13.60;70.30
84983;DHT22;75295;45.426;9.696;2024-03-23T03:00:58;13.50;71.00
84983;DHT22;75295;45.426;9.696;2024-03-23T03:03:25;13.40;71.50
84983;DHT22;75295;45.426;9.696;2024-03-23T03:05:55;13.30;71.80
84983;DHT22;75295;45.426;9.696;2024-03-23T03:08:22;13.20;72.00
84983;DHT22;75295;45.426;9.696;2024-03-23T03:10:49;13.20;72.00
84983;DHT22;75295;45.426;9.696;2024-03-23T03:13:15;13.30;72.10
84983;DHT22;75295;45.426;9.696;2024-03-23T03:15:45;13.30;72.00
84983;DHT22;75295;45.426;9.696;2024-03-23T03:18:12;13.40;71.70
84983;DHT22;75295;45.426;9.696;2024-03-23T03:20:41;13.40;71.00
84983;DHT22;75295;45.426;9.696;2024-03-23T03:23:08;13.40;70.50
84983;DHT22;75295;45.426;9.696;2024-03-23T03:25:36;13.30;70.20
84983;DHT22;75295;45.426;9.696;2024-03-23T03:28:03;13.20;70.20
84983;DHT22;75295;45.426;9.696;2024-03-23T03:30:30;13.10;70.20
84983;DHT22;75295;45.426;9.696;2024-03-23T03:32:57;13.10;70.20
84983;DHT22;75295;45.426;9.696;2024-03-23T03:35:24;13.10;70.30
84983;DHT22;75295;45.426;9.696;2024-03-23T03:37:50;13.10;70.30
84983;DHT22;75295;45.426;9.696;2024-03-23T03:40:17;13.10;70.10
84983;DHT22;75295;45.426;9.696;2024-03-23T03:42:43;13.10;70.10
84983;DHT22;75295;45.426;9.696;2024-03-23T03:45:10;13.10;70.30
84983;DHT22;75295;45.426;9.696;2024-03-23T03:47:37;13.10;70.40
84983;DHT22;75295;45.426;9.696;2024-03-23T03:50:04;13.00;70.20
84983;DHT22;75295;45.426;9.696;2024-03-23T03:52:31;13.00;70.40
84983;DHT22;75295;45.426;9.696;2024-03-23T03:55:02;13.00;70.60
84983;DHT22;75295;45.426;9.696;2024-03-23T03:57:30;12.90;70.70
84983;DHT22;75295;45.426;9.696;2024-03-23T03:59:56;12.90;70.70
84983;DHT22;75295;45.426;9.696;2024-03-23T04:02:23;12.80;70.50
84983;DHT22;75295;45.426;9.696;2024-03-23T04:04:49;12.60;70.90
84983;DHT22;75295;45.426;9.696;2024-03-23T04:07:16;12.50;71.50
84983;DHT22;75295;45.426;9.696;2024-03-23T04:09:44;12.50;71.80
84983;DHT22;75295;45.426;9.696;2024-03-23T04:12:10;12.40;71.80
84983;DHT22;75295;45.426;9.696;2024-03-23T04:14:37;12.40;72.40
84983;DHT22;75295;45.426;9.696;2024-03-23T04:17:04;12.40;72.80
84983;DHT22;75295;45.426;9.696;2024-03-23T04:19:31;12.30;72.80
84983;DHT22;75295;45.426;9.696;2024-03-23T04:21:57;12.40;72.90
84983;DHT22;75295;45.426;9.696;2024-03-23T04:24:24;12.40;72.90
84983;DHT22;75295;45.426;9.696;2024-03-23T04:26:52;12.50;72.60
84983;DHT22;75295;45.426;9.696;2024-03-23T04:29:19;12.50;72.40
84983;DHT22;75295;45.426;9.696;2024-03-23T04:31:45;12.50;72.60
84983;DHT22;75295;45.426;9.696;2024-03-23T04:34:12;12.50;72.60
84983;DHT22;75295;45.426;9.696;2024-03-23T04:36:39;12.50;72.70
84983;DHT22;75295;45.426;9.696;2024-03-23T04:39:06;12.40;72.90
84983;DHT22;75295;45.426;9.696;2024-03-23T04:41:35;12.30;73.00
84983;DHT22;75295;45.426;9.696;2024-03-23T04:44:02;12.30;72.80
84983;DHT22;75295;45.426;9.696;2024-03-23T04:46:28;12.30;72.40
84983;DHT22;75295;45.426;9.696;2024-03-23T04:48:55;12.10;72.10
84983;DHT22;75295;45.426;9.696;2024-03-23T04:51:23;12.10;72.70
84983;DHT22;75295;45.426;9.696;2024-03-23T04:53:50;12.20;72.80
84983;DHT22;75295;45.426;9.696;2024-03-23T04:56:17;12.30;72.60
84983;DHT22;75295;45.426;9.696;2024-03-23T04:58:43;12.30;72.50
84983;DHT22;75295;45.426;9.696;2024-03-23T05:01:11;12.30;72.40
84983;DHT22;75295;45.426;9.696;2024-03-23T05:03:38;12.30;72.40
84983;DHT22;75295;45.426;9.696;2024-03-23T05:06:05;12.30;72.60
84983;DHT22;75295;45.426;9.696;2024-03-23T05:08:32;12.40;72.40
84983;DHT22;75295;45.426;9.696;2024-03-23T05:10:58;12.50;72.20
84983;DHT22;75295;45.426;9.696;2024-03-23T05:13:25;12.50;72.00
84983;DHT22;75295;45.426;9.696;2024-03-23T05:15:55;12.50;71.80
84983;DHT22;75295;45.426;9.696;2024-03-23T05:18:22;12.50;71.90
84983;DHT22;75295;45.426;9.696;2024-03-23T05:20:48;12.40;72.00
84983;DHT22;75295;45.426;9.696;2024-03-23T05:23:15;12.30;72.00
84983;DHT22;75295;45.426;9.696;2024-03-23T05:25:41;12.10;71.90
84983;DHT22;75295;45.426;9.696;2024-03-23T05:28:08;12.00;72.30
84983;DHT22;75295;45.426;9.696;2024-03-23T05:30:35;11.80;72.50
84983;DHT22;75295;45.426;9.696;2024-03-23T05:33:02;11.60;73.20
84983;DHT22;75295;45.426;9.696;2024-03-23T05:35:28;11.50;73.70
84983;DHT22;75295;45.426;9.696;2024-03-23T05:37:55;11.50;73.70
84983;DHT22;75295;45.426;9.696;2024-03-23T05:40:22;11.50;73.90
84983;DHT22;75295;45.426;9.696;2024-03-23T05:42:49;11.60;73.80
84983;DHT22;75295;45.426;9.696;2024-03-23T05:45:19;11.60;73.80
84983;DHT22;75295;45.426;9.696;2024-03-23T05:47:46;11.60;73.70
84983;DHT22;75295;45.426;9.696;2024-03-23T05:50:12;11.60;73.80
84983;DHT22;75295;45.426;9.696;2024-03-23T05:52:39;11.70;74.00
84983;DHT22;75295;45.426;9.696;2024-03-23T05:55:25;11.80;74.10
84983;DHT22;75295;45.426;9.696;2024-03-23T05:57:51;11.90;73.80
84983;DHT22;75295;45.426;9.696;2024-03-23T06:00:18;12.00;73.60
84983;DHT22;75295;45.426;9.696;2024-03-23T06:02:45;12.10;73.60
84983;DHT22;75295;45.426;9.696;2024-03-23T06:05:12;12.20;73.50
84983;DHT22;75295;45.426;9.696;2024-03-23T06:07:38;12.20;73.50
84983;DHT22;75295;45.426;9.696;2024-03-23T06:10:05;12.30;74.10
84983;DHT22;75295;45.426;9.696;2024-03-23T06:12:34;12.40;73.30
84983;DHT22;75295;45.426;9.696;2024-03-23T06:15:00;12.50;73.10
84983;DHT22;75295;45.426;9.696;2024-03-23T06:17:27;12.60;73.00
84983;DHT22;75295;45.426;9.696;2024-03-23T06:19:53;12.70;72.70
84983;DHT22;75295;45.426;9.696;2024-03-23T06:22:20;12.80;72.60
84983;DHT22;75295;45.426;9.696;2024-03-23T06:24:47;12.90;72.60
84983;DHT22;75295;45.426;9.696;2024-03-23T06:27:13;12.80;72.90
84983;DHT22;75295;45.426;9.696;2024-03-23T06:29:40;12.70;73.40
84983;DHT22;75295;45.426;9.696;2024-03-23T06:32:07;12.70;73.90
84983;DHT22;75295;45.426;9.696;2024-03-23T06:34:33;12.70;74.10
84983;DHT22;75295;45.426;9.696;2024-03-23T06:37:01;12.70;74.20
84983;DHT22;75295;45.426;9.696;2024-03-23T06:39:29;12.70;74.30
84983;DHT22;75295;45.426;9.696;2024-03-23T06:41:56;12.80;74.50
84983;DHT22;75295;45.426;9.696;2024-03-23T06:44:23;12.90;74.80
84983;DHT22;75295;45.426;9.696;2024-03-23T06:46:49;12.80;75.50
84983;DHT22;75295;45.426;9.696;2024-03-23T06:49:16;12.80;76.20
84983;DHT22;75295;45.426;9.696;2024-03-23T06:51:43;12.90;76.30
84983;DHT22;75295;45.426;9.696;2024-03-23T06:54:09;13.00;75.80
84983;DHT22;75295;45.426;9.696;2024-03-23T06:56:36;13.20;75.20
84983;DHT22;75295;45.426;9.696;2024-03-23T06:59:02;13.30;75.00
84983;DHT22;75295;45.426;9.696;2024-03-23T07:01:29;13.40;74.70
84983;DHT22;75295;45.426;9.696;2024-03-23T07:03:55;13.40;74.50
84983;DHT22;75295;45.426;9.696;2024-03-23T07:06:22;13.50;74.20
84983;DHT22;75295;45.426;9.696;2024-03-23T07:08:49;13.60;74.40
84983;DHT22;75295;45.426;9.696;2024-03-23T07:11:20;13.60;74.20
84983;DHT22;75295;45.426;9.696;2024-03-23T07:13:50;13.70;74.30
84983;DHT22;75295;45.426;9.696;2024-03-23T07:16:17;13.80;74.20
84983;DHT22;75295;45.426;9.696;2024-03-23T07:18:44;14.00;74.20
84983;DHT22;75295;45.426;9.696;2024-03-23T07:21:10;14.20;74.10
84983;DHT22;75295;45.426;9.696;2024-03-23T07:23:37;14.40;74.20
84983;DHT22;75295;45.426;9.696;2024-03-23T07:26:05;14.60;73.90
84983;DHT22;75295;45.426;9.696;2024-03-23T07:28:32;14.80;73.70
84983;DHT22;75295;45.426;9.696;2024-03-23T07:31:04;15.00;73.00
84983;DHT22;75295;45.426;9.696;2024-03-23T07:33:32;15.10;72.70
84983;DHT22;75295;45.426;9.696;2024-03-23T07:35:59;15.30;71.80
84983;DHT22;75295;45.426;9.696;2024-03-23T07:38:27;15.40;71.00
84983;DHT22;75295;45.426;9.696;2024-03-23T07:43:36;15.50;70.60
84983;DHT22;75295;45.426;9.696;2024-03-23T07:46:04;15.60;71.10
84983;DHT22;75295;45.426;9.696;2024-03-23T07:48:31;15.70;70.90
84983;DHT22;75295;45.426;9.696;2024-03-23T07:51:02;15.90;70.50
84983;DHT22;75295;45.426;9.696;2024-03-23T07:53:31;16.00;69.90
84983;DHT22;75295;45.426;9.696;2024-03-23T07:56:01;16.20;69.80
84983;DHT22;75295;45.426;9.696;2024-03-23T07:58:29;16.30;68.90
84983;DHT22;75295;45.426;9.696;2024-03-23T08:01:01;16.30;67.50
84983;DHT22;75295;45.426;9.696;2024-03-23T08:03:31;16.30;67.60
84983;DHT22;75295;45.426;9.696;2024-03-23T08:05:57;16.30;67.80
84983;DHT22;75295;45.426;9.696;2024-03-23T08:08:25;16.40;67.60
84983;DHT22;75295;45.426;9.696;2024-03-23T08:10:52;16.50;67.60
84983;DHT22;75295;45.426;9.696;2024-03-23T08:13:21;16.60;67.90
84983;DHT22;75295;45.426;9.696;2024-03-23T08:15:48;16.70;67.80
84983;DHT22;75295;45.426;9.696;2024-03-23T08:18:15;16.80;67.60
84983;DHT22;75295;45.426;9.696;2024-03-23T08:20:44;16.90;67.30
84983;DHT22;75295;45.426;9.696;2024-03-23T08:23:10;16.90;67.00
84983;DHT22;75295;45.426;9.696;2024-03-23T08:25:37;16.90;67.00
84983;DHT22;75295;45.426;9.696;2024-03-23T08:28:04;16.90;67.40
84983;DHT22;75295;45.426;9.696;2024-03-23T08:30:31;17.00;67.50
84983;DHT22;75295;45.426;9.696;2024-03-23T08:32:58;17.10;66.90
84983;DHT22;75295;45.426;9.696;2024-03-23T08:35:25;17.00;66.10
84983;DHT22;75295;45.426;9.696;2024-03-23T08:37:52;17.10;66.70
84983;DHT22;75295;45.426;9.696;2024-03-23T08:40:18;17.00;66.80
84983;DHT22;75295;45.426;9.696;2024-03-23T08:42:45;17.10;67.00
84983;DHT22;75295;45.426;9.696;2024-03-23T08:45:11;17.00;66.90
84983;DHT22;75295;45.426;9.696;2024-03-23T08:47:38;17.00;67.70
84983;DHT22;75295;45.426;9.696;2024-03-23T08:50:05;17.10;67.90
84983;DHT22;75295;45.426;9.696;2024-03-23T08:52:33;17.30;68.60
84983;DHT22;75295;45.426;9.696;2024-03-23T08:54:59;17.40;68.30
84983;DHT22;75295;45.426;9.696;2024-03-23T08:57:26;17.60;67.70
84983;DHT22;75295;45.426;9.696;2024-03-23T08:59:53;17.70;67.40
84983;DHT22;75295;45.426;9.696;2024-03-23T09:02:19;17.80;67.70
84983;DHT22;75295;45.426;9.696;2024-03-23T09:04:46;17.80;67.10
84983;DHT22;75295;45.426;9.696;2024-03-23T09:07:12;17.90;67.70
84983;DHT22;75295;45.426;9.696;2024-03-23T09:09:39;18.00;67.50
84983;DHT22;75295;45.426;9.696;2024-03-23T09:12:06;18.10;67.70
84983;DHT22;75295;45.426;9.696;2024-03-23T09:14:34;18.30;67.10
84983;DHT22;75295;45.426;9.696;2024-03-23T09:17:00;18.30;67.10
84983;DHT22;75295;45.426;9.696;2024-03-23T09:19:28;18.30;66.80
84983;DHT22;75295;45.426;9.696;2024-03-23T09:21:56;18.30;66.70
84983;DHT22;75295;45.426;9.696;2024-03-23T09:24:22;18.30;67.60
84983;DHT22;75295;45.426;9.696;2024-03-23T09:26:51;18.50;67.40
84983;DHT22;75295;45.426;9.696;2024-03-23T09:29:18;18.50;66.60
84983;DHT22;75295;45.426;9.696;2024-03-23T09:31:45;18.50;66.80
84983;DHT22;75295;45.426;9.696;2024-03-23T09:34:12;18.70;66.40
84983;DHT22;75295;45.426;9.696;2024-03-23T09:36:38;18.80;65.90
84983;DHT22;75295;45.426;9.696;2024-03-23T09:39:07;18.90;65.80
84983;DHT22;75295;45.426;9.696;2024-03-23T09:41:35;19.00;65.70
84983;DHT22;75295;45.426;9.696;2024-03-23T09:44:02;19.10;66.00
84983;DHT22;75295;45.426;9.696;2024-03-23T09:46:30;19.10;66.30
84983;DHT22;75295;45.426;9.696;2024-03-23T09:49:00;19.20;65.40
84983;DHT22;75295;45.426;9.696;2024-03-23T09:51:27;19.10;64.70
84983;DHT22;75295;45.426;9.696;2024-03-23T09:53:54;19.10;65.60
84983;DHT22;75295;45.426;9.696;2024-03-23T09:56:21;19.00;65.10
84983;DHT22;75295;45.426;9.696;2024-03-23T09:58:48;19.00;65.50
84983;DHT22;75295;45.426;9.696;2024-03-23T10:01:15;19.00;65.70
84983;DHT22;75295;45.426;9.696;2024-03-23T10:03:45;19.10;65.50
84983;DHT22;75295;45.426;9.696;2024-03-23T10:06:12;19.20;64.80
84983;DHT22;75295;45.426;9.696;2024-03-23T10:08:39;19.30;65.00
84983;DHT22;75295;45.426;9.696;2024-03-23T10:11:16;19.50;64.20
84983;DHT22;75295;45.426;9.696;2024-03-23T10:13:43;19.70;63.00
84983;DHT22;75295;45.426;9.696;2024-03-23T10:16:10;19.70;62.50
84983;DHT22;75295;45.426;9.696;2024-03-23T10:18:38;19.80;62.60
84983;DHT22;75295;45.426;9.696;2024-03-23T10:23:39;19.90;61.80
84983;DHT22;75295;45.426;9.696;2024-03-23T10:26:18;19.90;62.00
84983;DHT22;75295;45.426;9.696;2024-03-23T10:28:56;19.90;61.80
84983;DHT22;75295;45.426;9.696;2024-03-23T10:31:25;19.70;61.40
84983;DHT22;75295;45.426;9.696;2024-03-23T10:33:52;19.70;62.10
84983;DHT22;75295;45.426;9.696;2024-03-23T10:36:23;19.70;62.30
84983;DHT22;75295;45.426;9.696;2024-03-23T10:38:51;19.90;61.70
84983;DHT22;75295;45.426;9.696;2024-03-23T10:41:19;19.90;60.80
84983;DHT22;75295;45.426;9.696;2024-03-23T10:43:47;19.60;61.50
84983;DHT22;75295;45.426;9.696;2024-03-23T10:46:15;19.60;61.90
84983;DHT22;75295;45.426;9.696;2024-03-23T10:48:42;19.60;62.80
84983;DHT22;75295;45.426;9.696;2024-03-23T10:51:10;19.60;62.40
84983;DHT22;75295;45.426;9.696;2024-03-23T10:53:37;19.60;62.80
84983;DHT22;75295;45.426;9.696;2024-03-23T10:56:04;19.60;62.90
84983;DHT22;75295;45.426;9.696;2024-03-23T10:58:48;19.60;62.60
84983;DHT22;75295;45.426;9.696;2024-03-23T11:01:17;19.60;62.80
84983;DHT22;75295;45.426;9.696;2024-03-23T11:03:47;19.70;62.40
84983;DHT22;75295;45.426;9.696;2024-03-23T11:06:43;19.80;62.50
84983;DHT22;75295;45.426;9.696;2024-03-23T11:12:28;20.30;62.00
84983;DHT22;75295;45.426;9.696;2024-03-23T11:15:03;20.70;61.20
84983;DHT22;75295;45.426;9.696;2024-03-23T11:17:31;21.00;60.80
84983;DHT22;75295;45.426;9.696;2024-03-23T11:20:03;21.20;59.80
84983;DHT22;75295;45.426;9.696;2024-03-23T11:25:33;21.40;59.00
84983;DHT22;75295;45.426;9.696;2024-03-23T11:28:12;21.50;58.70
84983;DHT22;75295;45.426;9.696;2024-03-23T11:30:38;21.60;59.00
84983;DHT22;75295;45.426;9.696;2024-03-23T11:33:05;21.50;57.70
84983;DHT22;75295;45.426;9.696;2024-03-23T11:35:33;21.50;58.50
84983;DHT22;75295;45.426;9.696;2024-03-23T11:38:13;21.40;58.10
84983;DHT22;75295;45.426;9.696;2024-03-23T11:40:45;21.50;58.80
84983;DHT22;75295;45.426;9.696;2024-03-23T11:43:17;21.70;58.60
84983;DHT22;75295;45.426;9.696;2024-03-23T11:45:49;21.90;58.30
84983;DHT22;75295;45.426;9.696;2024-03-23T11:48:21;22.20;57.40
84983;DHT22;75295;45.426;9.696;2024-03-23T11:50:50;22.30;56.50
84983;DHT22;75295;45.426;9.696;2024-03-23T11:53:21;22.40;56.40
84983;DHT22;75295;45.426;9.696;2024-03-23T11:55:56;22.50;55.80
84983;DHT22;75295;45.426;9.696;2024-03-23T11:58:25;22.70;55.00
84983;DHT22;75295;45.426;9.696;2024-03-23T12:00:54;22.80;54.70
84983;DHT22;75295;45.426;9.696;2024-03-23T12:03:23;22.90;54.30
84983;DHT22;75295;45.426;9.696;2024-03-23T12:05:54;23.00;54.10
84983;DHT22;75295;45.426;9.696;2024-03-23T12:08:32;23.00;54.10
84983;DHT22;75295;45.426;9.696;2024-03-23T12:11:12;22.80;53.60
84983;DHT22;75295;45.426;9.696;2024-03-23T12:13:45;22.60;53.90
84983;DHT22;75295;45.426;9.696;2024-03-23T12:16:20;22.40;54.80
84983;DHT22;75295;45.426;9.696;2024-03-23T12:18:49;22.20;55.40
84983;DHT22;75295;45.426;9.696;2024-03-23T12:21:17;22.10;55.70
84983;DHT22;75295;45.426;9.696;2024-03-23T12:23:44;21.90;57.00
84983;DHT22;75295;45.426;9.696;2024-03-23T12:26:13;21.90;56.90
84983;DHT22;75295;45.426;9.696;2024-03-23T12:28:40;21.70;57.10
84983;DHT22;75295;45.426;9.696;2024-03-23T12:31:06;21.60;57.20
84983;DHT22;75295;45.426;9.696;2024-03-23T12:33:33;21.60;57.20
84983;DHT22;75295;45.426;9.696;2024-03-23T12:36:00;21.30;58.20
84983;DHT22;75295;45.426;9.696;2024-03-23T12:38:26;21.20;58.80
84983;DHT22;75295;45.426;9.696;2024-03-23T12:40:53;21.20;58.80
84983;DHT22;75295;45.426;9.696;2024-03-23T12:43:19;21.20;58.70
84983;DHT22;75295;45.426;9.696;2024-03-23T12:45:47;21.30;58.60
84983;DHT22;75295;45.426;9.696;2024-03-23T12:48:14;21.40;58.30
84983;DHT22;75295;45.426;9.696;2024-03-23T12:50:40;21.40;58.10
84983;DHT22;75295;45.426;9.696;2024-03-23T12:53:07;21.40;57.80
84983;DHT22;75295;45.426;9.696;2024-03-23T12:55:37;21.30;57.90
84983;DHT22;75295;45.426;9.696;2024-03-23T12:58:04;21.10;58.20
84983;DHT22;75295;45.426;9.696;2024-03-23T13:00:31;20.80;59.30
84983;DHT22;75295;45.426;9.696;2024-03-23T13:02:57;20.40;60.20
84983;DHT22;75295;45.426;9.696;2024-03-23T13:05:24;20.10;61.30
84983;DHT22;75295;45.426;9.696;2024-03-23T13:07:51;20.00;61.70
84983;DHT22;75295;45.426;9.696;2024-03-23T13:10:17;19.90;61.70
84983;DHT22;75295;45.426;9.696;2024-03-23T13:12:44;19.90;61.90
84983;DHT22;75295;45.426;9.696;2024-03-23T13:15:11;20.00;61.90
84983;DHT22;75295;45.426;9.696;2024-03-23T13:17:37;20.10;61.80
84983;DHT22;75295;45.426;9.696;2024-03-23T13:20:04;20.20;61.80
84983;DHT22;75295;45.426;9.696;2024-03-23T13:22:31;20.50;61.40
84983;DHT22;75295;45.426;9.696;2024-03-23T13:24:58;20.60;59.80
84983;DHT22;75295;45.426;9.696;2024-03-23T13:27:26;20.70;59.70
84983;DHT22;75295;45.426;9.696;2024-03-23T13:29:53;20.70;59.10
84983;DHT22;75295;45.426;9.696;2024-03-23T13:32:19;20.80;59.30
84983;DHT22;75295;45.426;9.696;2024-03-23T13:34:46;20.80;59.20
84983;DHT22;75295;45.426;9.696;2024-03-23T13:37:16;21.10;59.10
84983;DHT22;75295;45.426;9.696;2024-03-23T13:39:43;21.70;58.20
84983;DHT22;75295;45.426;9.696;2024-03-23T13:42:09;22.30;57.30
84983;DHT22;75295;45.426;9.696;2024-03-23T13:44:38;23.30;56.50
84983;DHT22;75295;45.426;9.696;2024-03-23T13:47:05;24.70;53.00
84983;DHT22;75295;45.426;9.696;2024-03-23T13:49:32;26.30;49.80
84983;DHT22;75295;45.426;9.696;2024-03-23T13:51:59;27.70;47.90
84983;DHT22;75295;45.426;9.696;2024-03-23T13:54:27;28.80;44.60
84983;DHT22;75295;45.426;9.696;2024-03-23T13:56:56;29.80;43.70
84983;DHT22;75295;45.426;9.696;2024-03-23T13:59:23;30.40;40.10
84983;DHT22;75295;45.426;9.696;2024-03-23T14:01:51;30.50;40.50
84983;DHT22;75295;45.426;9.696;2024-03-23T14:04:18;31.00;40.20
84983;DHT22;75295;45.426;9.696;2024-03-23T14:06:47;31.30;39.70
84983;DHT22;75295;45.426;9.696;2024-03-23T14:09:14;31.70;38.80
84983;DHT22;75295;45.426;9.696;2024-03-23T14:11:42;32.30;38.40
84983;DHT22;75295;45.426;9.696;2024-03-23T14:14:09;32.70;37.50
84983;DHT22;75295;45.426;9.696;2024-03-23T14:16:37;33.10;37.50
84983;DHT22;75295;45.426;9.696;2024-03-23T14:19:04;33.60;36.90
84983;DHT22;75295;45.426;9.696;2024-03-23T14:21:32;33.90;36.80
84983;DHT22;75295;45.426;9.696;2024-03-23T14:23:58;34.40;43.40
84983;DHT22;75295;45.426;9.696;2024-03-23T14:26:27;34.40;38.50
84983;DHT22;75295;45.426;9.696;2024-03-23T14:28:54;34.50;35.00
84983;DHT22;75295;45.426;9.696;2024-03-23T14:31:21;33.50;35.30
84983;DHT22;75295;45.426;9.696;2024-03-23T14:33:48;32.30;36.80
84983;DHT22;75295;45.426;9.696;2024-03-23T14:36:15;30.60;38.40
84983;DHT22;75295;45.426;9.696;2024-03-23T14:41:19;28.40;42.00
84983;DHT22;75295;45.426;9.696;2024-03-23T14:43:45;27.60;44.00
84983;DHT22;75295;45.426;9.696;2024-03-23T14:46:15;27.00;45.20
84983;DHT22;75295;45.426;9.696;2024-03-23T14:48:43;26.40;46.10
84983;DHT22;75295;45.426;9.696;2024-03-23T14:51:11;26.00;47.00
84983;DHT22;75295;45.426;9.696;2024-03-23T14:53:39;25.50;48.20
84983;DHT22;75295;45.426;9.696;2024-03-23T14:56:08;25.00;49.20
84983;DHT22;75295;45.426;9.696;2024-03-23T14:58:38;24.60;50.20
84983;DHT22;75295;45.426;9.696;2024-03-23T15:01:07;24.30;51.20
84983;DHT22;75295;45.426;9.696;2024-03-23T15:03:38;24.10;51.60
84983;DHT22;75295;45.426;9.696;2024-03-23T15:06:06;23.80;52.20
84983;DHT22;75295;45.426;9.696;2024-03-23T15:08:35;23.70;51.80
84983;DHT22;75295;45.426;9.696;2024-03-23T15:11:04;23.70;52.60
84983;DHT22;75295;45.426;9.696;2024-03-23T15:13:34;23.60;52.70
84983;DHT22;75295;45.426;9.696;2024-03-23T15:16:01;23.50;53.40
84983;DHT22;75295;45.426;9.696;2024-03-23T15:18:30;23.60;53.10
84983;DHT22;75295;45.426;9.696;2024-03-23T15:20:58;23.70;52.90
84983;DHT22;75295;45.426;9.696;2024-03-23T15:23:29;23.70;51.60
84983;DHT22;75295;45.426;9.696;2024-03-23T15:25:57;23.60;51.60
84983;DHT22;75295;45.426;9.696;2024-03-23T15:28:24;23.50;52.00
84983;DHT22;75295;45.426;9.696;2024-03-23T15:31:05;23.20;52.20
84983;DHT22;75295;45.426;9.696;2024-03-23T15:33:33;23.00;53.10
84983;DHT22;75295;45.426;9.696;2024-03-23T15:36:00;22.70;54.30
84983;DHT22;75295;45.426;9.696;2024-03-23T15:38:27;22.50;55.50
84983;DHT22;75295;45.426;9.696;2024-03-23T15:40:55;22.20;57.00
84983;DHT22;75295;45.426;9.696;2024-03-23T15:43:22;21.90;56.90
84983;DHT22;75295;45.426;9.696;2024-03-23T15:45:59;21.70;57.60
84983;DHT22;75295;45.426;9.696;2024-03-23T15:48:28;21.50;58.20
84983;DHT22;75295;45.426;9.696;2024-03-23T15:50:57;21.30;58.30
84983;DHT22;75295;45.426;9.696;2024-03-23T15:53:26;21.30;58.60
84983;DHT22;75295;45.426;9.696;2024-03-23T15:55:59;21.20;58.60
84983;DHT22;75295;45.426;9.696;2024-03-23T15:58:28;21.20;58.80
84983;DHT22;75295;45.426;9.696;2024-03-23T16:03:27;21.10;58.90
84983;DHT22;75295;45.426;9.696;2024-03-23T16:05:57;21.20;59.20
84983;DHT22;75295;45.426;9.696;2024-03-23T16:08:27;21.30;59.80
84983;DHT22;75295;45.426;9.696;2024-03-23T16:10:54;21.30;60.00
84983;DHT22;75295;45.426;9.696;2024-03-23T16:13:27;21.40;61.20
84983;DHT22;75295;45.426;9.696;2024-03-23T16:15:57;21.60;60.60
84983;DHT22;75295;45.426;9.696;2024-03-23T16:18:25;21.70;60.30
84983;DHT22;75295;45.426;9.696;2024-03-23T16:20:59;21.80;60.30
84983;DHT22;75295;45.426;9.696;2024-03-23T16:23:27;21.70;60.20
84983;DHT22;75295;45.426;9.696;2024-03-23T16:25:55;21.70;60.00
84983;DHT22;75295;45.426;9.696;2024-03-23T16:28:26;21.60;59.70
84983;DHT22;75295;45.426;9.696;2024-03-23T16:30:58;21.50;60.00
84983;DHT22;75295;45.426;9.696;2024-03-23T16:33:29;21.50;60.00
84983;DHT22;75295;45.426;9.696;2024-03-23T16:36:03;21.40;60.10
84983;DHT22;75295;45.426;9.696;2024-03-23T16:38:36;21.20;60.50
84983;DHT22;75295;45.426;9.696;2024-03-23T16:41:05;21.10;60.80
84983;DHT22;75295;45.426;9.696;2024-03-23T16:43:34;21.20;60.70